Terminal Aerodrome Forecast
Issued by NWS

Home | Current Version | Previous Version | Text Only | Print | Product List | Glossary On
Versions: 1 2 3 4 5 6 7 8 9 10 11 12 13
000
FTUS42 KTBW 311700
TAFLAL
TAF
KLAL 311736Z 3118/0118 29005KT P6SM SCT050 SCT250
     FM312300 29004KT P6SM VCTS BKN050CB
     FM010100 VRB03KT P6SM FEW040 SCT100 SCT250
     FM011300 VRB03KT P6SM VCTS SCT035CB BKN100=

USA.gov is the U.S. government's official web portal to all federal, state and local government web resources and services.